Time;durP1;ratioP1;P1;durP2;ratioP2;P2;SDS_P1;SDS_P2;PMS_P1;PMS_P2;Temp;Humidity;BMP_temperature;BMP_pressure;BME280_temperature;BME280_humidity;BME280_pressure;Samples;Min_cycle;Max_cycle;Signal;HPM_P1;HPM_P2
2022/01/10 00:01:48;;;;;;;66.25;32.88;;;8.40;51.40;;;;;;4914050;29;20031;-84
2022/01/10 00:04:15;;;;;;;63.17;32.10;;;8.30;51.40;;;;;;4920732;29;20036;-84
2022/01/10 00:06:40;;;;;;;69.75;32.97;;;8.40;51.50;;;;;;4902987;29;20033;-79
2022/01/10 00:09:06;;;;;;;60.90;31.65;;;8.40;51.70;;;;;;4903756;29;20034;-81
2022/01/10 00:11:32;;;;;;;66.93;33.70;;;8.40;51.40;;;;;;4902796;29;20083;-87
2022/01/10 00:13:57;;;;;;;61.53;33.40;;;8.40;51.60;;;;;;4920294;29;20380;-93
2022/01/10 00:16:24;;;;;;;62.67;32.00;;;8.40;51.60;;;;;;4903066;29;20501;-81
2022/01/10 00:18:49;;;;;;;62.28;31.85;;;8.30;51.90;;;;;;4902471;29;20020;-79
2022/01/10 00:21:15;;;;;;;68.32;33.10;;;8.20;52.00;;;;;;4919547;29;20032;-79
2022/01/10 00:23:41;;;;;;;60.35;31.55;;;8.30;52.10;;;;;;4919855;29;20028;-80
2022/01/10 00:26:07;;;;;;;65.35;31.73;;;8.60;51.50;;;;;;4919018;29;20043;-81
2022/01/10 00:28:33;;;;;;;57.70;30.55;;;8.70;51.70;;;;;;4919852;29;20483;-79
2022/01/10 00:31:00;;;;;;;64.50;33.03;;;8.70;51.10;;;;;;4902297;29;20087;-79
2022/01/10 00:33:26;;;;;;;66.68;31.98;;;7.00;53.50;;;;;;4919786;29;20029;-83
2022/01/10 00:35:51;;;;;;;66.43;32.58;;;6.40;55.40;;;;;;4919090;29;20036;-85
2022/01/10 00:38:17;;;;;;;65.82;32.95;;;6.40;56.00;;;;;;4902495;29;20057;-82
2022/01/10 00:40:44;;;;;;;66.47;33.42;;;6.50;55.90;;;;;;4919157;29;20111;-78
2022/01/10 00:43:17;;;;;;;66.85;34.97;;;7.20;55.20;;;;;;4919365;29;20111;-83
2022/01/10 00:45:43;;;;;;;62.85;32.53;;;7.80;54.10;;;;;;4902288;29;20135;-90
2022/01/10 00:48:09;;;;;;;62.60;33.42;;;8.30;52.50;;;;;;4902570;29;20465;-86
2022/01/10 00:50:34;;;;;;;66.47;34.38;;;8.60;51.90;;;;;;4918818;29;20047;-79
2022/01/10 00:53:01;;;;;;;71.88;35.55;;;8.90;51.40;;;;;;4919366;29;20032;-79
2022/01/10 00:55:29;;;;;;;69.28;33.83;;;9.00;51.00;;;;;;4919499;29;20020;-85
2022/01/10 00:57:55;;;;;;;65.43;33.28;;;8.90;51.10;;;;;;4902336;29;20032;-82
2022/01/10 01:00:20;;;;;;;62.30;32.65;;;8.90;51.40;;;;;;4918855;29;20030;-85
2022/01/10 01:02:47;;;;;;;67.85;31.83;;;9.00;50.90;;;;;;4902349;29;20036;-81
2022/01/10 01:05:15;;;;;;;64.97;34.75;;;9.00;50.60;;;;;;4902035;29;20020;-79
2022/01/10 01:07:40;;;;;;;64.65;33.42;;;8.90;51.10;;;;;;4918962;29;20034;-79
2022/01/10 01:13:09;;;;;;;62.38;33.28;;;8.50;51.70;;;;;;4919415;29;20039;-94
2022/01/10 01:15:45;;;;;;;69.30;32.83;;;8.30;52.30;;;;;;4918947;29;20075;-86
2022/01/10 01:26:01;;;;;;;71.45;34.63;;;8.60;51.60;;;;;;4918697;29;20055;-79
2022/01/10 01:28:28;;;;;;;71.50;35.30;;;8.50;51.80;;;;;;4918698;29;20024;-79
2022/01/10 01:30:54;;;;;;;69.78;34.50;;;8.60;51.50;;;;;;4901259;29;20029;-84
2022/01/10 01:33:20;;;;;;;71.68;34.45;;;8.70;51.30;;;;;;4901951;29;20024;-83
2022/01/10 01:35:47;;;;;;;72.45;36.70;;;8.80;51.40;;;;;;4901057;29;20107;-86
2022/01/10 01:38:13;;;;;;;67.28;35.25;;;9.00;50.80;;;;;;4918862;29;20546;-78
2022/01/10 01:40:46;;;;;;;68.80;34.92;;;9.00;50.70;;;;;;4918523;29;20036;-79
2022/01/10 01:43:12;;;;;;;70.28;35.92;;;8.80;51.00;;;;;;4901531;29;20032;-82
2022/01/10 01:45:47;;;;;;;67.28;33.75;;;8.40;51.70;;;;;;4901359;29;20036;-84
2022/01/10 01:48:13;;;;;;;62.53;32.75;;;8.40;52.00;;;;;;4918946;29;20036;-80
2022/01/10 01:50:39;;;;;;;69.30;33.63;;;8.60;51.20;;;;;;4918782;29;20072;-84
2022/01/10 01:53:06;;;;;;;60.10;31.73;;;8.80;51.00;;;;;;4902035;29;20479;-79
2022/01/10 01:55:33;;;;;;;66.03;33.38;;;9.10;50.80;;;;;;4901171;29;20083;-85
2022/01/10 01:57:59;;;;;;;80.15;35.30;;;8.90;51.20;;;;;;4918421;29;20036;-79
2022/01/10 02:00:25;;;;;;;66.80;34.13;;;8.80;51.50;;;;;;4901309;29;20123;-81
2022/01/10 02:02:53;;;;;;;68.90;33.97;;;8.80;51.20;;;;;;4901360;29;20025;-81
2022/01/10 02:05:21;;;;;;;66.10;34.25;;;8.90;51.30;;;;;;4902426;29;20032;-82
2022/01/10 02:07:47;;;;;;;77.82;37.22;;;8.60;51.40;;;;;;4905419;29;20083;-80
2022/01/10 02:10:16;;;;;;;83.18;36.58;;;8.30;52.00;;;;;;4905334;29;20032;-95
2022/01/10 02:12:42;;;;;;;74.73;36.83;;;8.10;52.80;;;;;;4905547;29;20072;-80
2022/01/10 02:15:32;;;;;;;73.03;34.45;;;8.20;52.50;;;;;;4905076;29;20052;-81
2022/01/10 02:18:00;;;;;;;69.28;35.55;;;8.30;52.10;;;;;;4905379;29;20114;-79
2022/01/10 02:20:29;;;;;;;72.47;35.08;;;8.50;51.80;;;;;;4921959;29;20040;-81
2022/01/10 02:22:55;;;;;;;73.15;36.40;;;8.50;51.90;;;;;;4905416;29;20036;-80
2022/01/10 02:25:20;;;;;;;74.38;36.03;;;8.40;51.90;;;;;;4904591;29;20043;-86
2022/01/10 02:27:48;;;;;;;64.35;33.45;;;8.40;51.90;;;;;;4905358;29;20107;-79
2022/01/10 02:30:14;;;;;;;70.95;34.03;;;8.40;51.80;;;;;;4904971;29;20040;-80
2022/01/10 02:32:39;;;;;;;67.53;33.58;;;8.40;51.80;;;;;;4921949;29;20024;-82
2022/01/10 02:35:36;;;;;;;65.43;32.00;;;8.50;51.60;;;;;;4904745;29;20031;-88
2022/01/10 02:38:03;;;;;;;62.25;32.63;;;8.50;51.50;;;;;;4886468;29;20039;-82
2022/01/10 02:40:31;;;;;;;65.25;32.92;;;8.50;51.80;;;;;;4902436;29;20033;-80
2022/01/10 02:42:58;;;;;;;62.58;30.67;;;8.60;51.70;;;;;;4886118;29;20372;-79
2022/01/10 02:45:24;;;;;;;64.13;32.22;;;8.80;51.40;;;;;;4885468;29;20053;-80
2022/01/10 02:47:51;;;;;;;70.20;33.00;;;8.90;51.20;;;;;;4889300;29;20087;-80
2022/01/10 02:50:18;;;;;;;63.47;32.38;;;9.00;51.10;;;;;;4904471;29;20028;-82
2022/01/10 02:52:44;;;;;;;64.55;32.60;;;9.10;51.00;;;;;;4904875;29;20047;-79
2022/01/10 02:55:11;;;;;;;64.38;32.28;;;9.10;51.00;;;;;;4904227;29;20056;-93
2022/01/10 02:57:38;;;;;;;68.60;33.17;;;9.00;50.90;;;;;;4921546;29;20156;-81
2022/01/10 03:00:24;;;;;;;63.20;31.50;;;9.20;50.80;;;;;;4921134;29;20087;-79
2022/01/10 03:02:52;;;;;;;69.20;31.70;;;9.20;50.70;;;;;;4904731;29;20109;-95
2022/01/10 03:05:20;;;;;;;65.90;32.75;;;9.20;50.80;;;;;;4904111;29;20039;-88
2022/01/10 03:07:49;;;;;;;66.00;32.80;;;9.20;50.70;;;;;;4920904;29;20105;-81
2022/01/10 03:10:15;;;;;;;70.75;34.95;;;9.30;50.50;;;;;;4903972;29;20044;-80
2022/01/10 03:12:41;;;;;;;67.57;33.08;;;9.30;50.50;;;;;;4904284;29;20047;-94
2022/01/10 03:15:08;;;;;;;64.35;31.90;;;9.20;50.70;;;;;;4903744;29;20024;-83
2022/01/10 03:17:35;;;;;;;68.75;34.25;;;9.10;50.60;;;;;;4904181;29;20047;-80
2022/01/10 03:20:03;;;;;;;67.95;33.65;;;9.10;51.00;;;;;;4903960;29;20024;-84
2022/01/10 03:22:28;;;;;;;65.63;33.80;;;9.00;51.10;;;;;;4903778;29;20036;-80
2022/01/10 03:24:55;;;;;;;65.45;34.30;;;9.10;51.10;;;;;;4903388;29;20038;-80
2022/01/10 03:27:20;;;;;;;65.78;33.45;;;9.20;50.80;;;;;;4903736;29;20491;-79
2022/01/10 03:29:46;;;;;;;68.05;34.17;;;9.20;50.90;;;;;;4920096;29;20034;-79
2022/01/10 03:32:13;;;;;;;67.20;34.95;;;9.30;50.60;;;;;;4903597;29;20028;-79
2022/01/10 03:34:39;;;;;;;65.40;34.70;;;9.20;50.60;;;;;;4903419;29;20463;-80
2022/01/10 03:37:06;;;;;;;69.72;35.45;;;9.20;50.70;;;;;;4920831;29;20039;-80
2022/01/10 03:39:32;;;;;;;66.90;32.78;;;9.00;51.00;;;;;;4903583;29;20052;-80
2022/01/10 03:41:57;;;;;;;72.75;35.70;;;8.90;51.20;;;;;;4903733;29;20039;-79
2022/01/10 03:44:23;;;;;;;62.60;33.50;;;8.90;51.30;;;;;;4903240;29;20052;-80
2022/01/10 03:46:49;;;;;;;72.22;35.28;;;8.90;51.70;;;;;;4920543;29;20487;-80
2022/01/10 03:49:15;;;;;;;59.05;32.78;;;8.80;51.40;;;;;;4920307;29;20108;-80
2022/01/10 03:51:41;;;;;;;66.72;33.03;;;8.50;51.90;;;;;;4903529;29;20028;-82
2022/01/10 03:54:08;;;;;;;62.33;31.67;;;8.30;52.60;;;;;;4903365;29;20024;-89
2022/01/10 03:56:34;;;;;;;68.70;32.80;;;8.20;52.90;;;;;;4920314;29;20036;-81
2022/01/10 03:59:00;;;;;;;57.67;30.95;;;8.20;52.70;;;;;;4920029;29;20063;-80
2022/01/10 04:01:26;;;;;;;64.05;33.13;;;8.30;52.50;;;;;;4902920;29;20117;-82
2022/01/10 04:03:53;;;;;;;60.45;31.48;;;8.20;52.90;;;;;;4903006;29;20028;-79
2022/01/10 04:06:18;;;;;;;62.53;31.02;;;8.30;52.70;;;;;;4903393;29;20036;-79
2022/01/10 04:08:44;;;;;;;63.30;33.47;;;8.30;52.80;;;;;;4902980;29;20040;-82
2022/01/10 04:11:10;;;;;;;60.17;31.90;;;8.50;52.50;;;;;;4902959;29;20032;-80
2022/01/10 04:13:36;;;;;;;65.97;32.72;;;8.60;52.20;;;;;;4920741;29;20095;-79
2022/01/10 04:16:02;;;;;;;61.42;31.83;;;8.80;52.00;;;;;;4884379;29;20038;-86
2022/01/10 04:18:28;;;;;;;58.45;30.55;;;8.90;51.60;;;;;;4900955;29;20025;-82
2022/01/10 04:20:54;;;;;;;60.42;31.30;;;8.90;51.50;;;;;;4900749;29;20041;-80
2022/01/10 04:23:20;;;;;;;59.30;32.22;;;9.00;51.20;;;;;;4902774;29;20032;-80
2022/01/10 04:25:46;;;;;;;58.97;30.80;;;8.90;51.60;;;;;;4919963;29;20056;-81
2022/01/10 04:28:13;;;;;;;56.90;30.92;;;8.70;51.70;;;;;;4902274;29;20031;-80
2022/01/10 04:30:39;;;;;;;54.75;29.35;;;8.50;52.10;;;;;;4919689;29;20028;-79
2022/01/10 04:33:05;;;;;;;60.92;31.00;;;8.50;52.20;;;;;;4902736;29;20028;-80
2022/01/10 04:35:32;;;;;;;61.97;31.30;;;8.30;52.70;;;;;;4902573;29;20051;-80
2022/01/10 04:38:02;;;;;;;54.90;29.52;;;8.20;53.30;;;;;;4902159;29;20043;-80
2022/01/10 04:40:27;;;;;;;59.60;30.52;;;8.00;53.40;;;;;;4913550;29;20034;-79
2022/01/10 04:42:56;;;;;;;60.15;30.30;;;7.80;53.70;;;;;;4921232;29;20036;-80
2022/01/10 04:45:22;;;;;;;54.80;29.05;;;7.60;54.40;;;;;;4921032;29;20052;-83
2022/01/10 04:47:48;;;;;;;61.90;31.33;;;7.60;54.50;;;;;;4921089;29;20038;-80
2022/01/10 04:51:03;;;;;;;65.00;31.45;;;7.80;54.00;;;;;;4920969;29;20447;-82
2022/01/10 04:53:08;;;;;;;57.28;31.45;;;7.80;54.00;;;;;;4899975;29;20123;-80
2022/01/10 04:55:33;;;;;;;58.15;29.30;;;7.80;54.30;;;;;;4898606;29;20107;-79
2022/01/10 04:57:59;;;;;;;56.78;29.13;;;8.30;53.40;;;;;;4918819;29;20039;-79
2022/01/10 05:00:25;;;;;;;62.05;31.02;;;8.50;53.10;;;;;;4902089;29;20036;-80
2022/01/10 05:02:51;;;;;;;71.03;35.22;;;8.60;52.30;;;;;;4901723;29;20031;-79
2022/01/10 05:05:17;;;;;;;67.63;33.28;;;8.70;52.00;;;;;;4901871;29;20024;-79
2022/01/10 05:07:45;;;;;;;59.22;30.45;;;8.80;51.90;;;;;;4901978;29;20039;-79
2022/01/10 05:10:11;;;;;;;63.15;31.73;;;8.90;51.40;;;;;;4901910;29;20026;-81
2022/01/10 05:12:39;;;;;;;61.53;30.95;;;9.00;51.10;;;;;;4901787;29;20028;-78
2022/01/10 05:15:05;;;;;;;54.83;29.50;;;9.10;51.00;;;;;;4902334;29;20391;-79
2022/01/10 05:17:31;;;;;;;56.28;29.02;;;9.20;50.70;;;;;;4931786;29;20024;-80
2022/01/10 05:19:57;;;;;;;75.43;37.15;;;9.30;50.70;;;;;;4920504;29;20032;-79
2022/01/10 05:22:22;;;;;;;62.95;30.40;;;9.10;50.60;;;;;;4915196;29;20024;-79
2022/01/10 05:24:48;;;;;;;54.88;28.27;;;8.90;50.90;;;;;;4918813;29;20563;-79
2022/01/10 05:27:16;;;;;;;56.70;30.30;;;8.90;51.30;;;;;;4901540;29;20051;-83
2022/01/10 05:29:42;;;;;;;69.43;35.17;;;8.90;50.90;;;;;;4918628;29;20032;-79
2022/01/10 05:32:08;;;;;;;92.80;42.55;;;9.00;51.20;;;;;;4901581;29;20025;-94
2022/01/10 05:34:33;;;;;;;65.40;32.50;;;9.00;50.90;;;;;;4901166;29;20064;-80
2022/01/10 05:36:59;;;;;;;59.58;30.30;;;8.80;50.70;;;;;;4901448;29;20044;-79
2022/01/10 05:39:24;;;;;;;61.15;30.73;;;8.50;51.40;;;;;;4917475;29;20028;-79
2022/01/10 05:41:53;;;;;;;57.88;30.60;;;8.30;52.10;;;;;;4905095;29;20522;-92
2022/01/10 05:44:18;;;;;;;61.28;32.05;;;8.20;52.80;;;;;;4901882;29;20071;-88
2022/01/10 05:46:46;;;;;;;58.33;29.92;;;7.70;53.90;;;;;;4901853;29;20395;-85
2022/01/10 05:49:13;;;;;;;60.15;31.17;;;7.50;54.60;;;;;;4901559;29;20119;-80
2022/01/10 05:51:39;;;;;;;62.17;31.25;;;7.40;55.00;;;;;;4901611;29;20035;-85
2022/01/10 05:54:06;;;;;;;64.85;33.17;;;7.40;55.00;;;;;;4901688;29;20036;-80
2022/01/10 05:56:33;;;;;;;61.85;31.77;;;7.40;55.00;;;;;;4901535;29;20028;-80
2022/01/10 05:59:00;;;;;;;65.05;33.05;;;7.20;55.30;;;;;;4920624;29;20028;-82
2022/01/10 06:01:26;;;;;;;63.33;32.95;;;7.00;55.70;;;;;;4901078;29;20040;-81
2022/01/10 06:03:51;;;;;;;63.38;31.10;;;6.90;56.00;;;;;;4901838;29;20032;-78
2022/01/10 06:06:17;;;;;;;66.57;33.10;;;7.10;55.60;;;;;;4905841;29;20437;-78
2022/01/10 06:08:44;;;;;;;68.85;33.97;;;7.00;55.70;;;;;;4917934;29;20028;-82
2022/01/10 06:11:10;;;;;;;68.00;32.63;;;7.00;55.50;;;;;;4901440;29;20028;-81
2022/01/10 06:13:36;;;;;;;67.25;34.15;;;7.20;55.40;;;;;;4901303;29;20395;-88
2022/01/10 06:16:02;;;;;;;68.47;33.40;;;7.30;55.10;;;;;;4918258;29;20025;-78
2022/01/10 06:18:27;;;;;;;65.85;31.17;;;7.40;55.00;;;;;;4918101;29;20400;-79
2022/01/10 06:20:54;;;;;;;63.22;33.08;;;7.30;55.30;;;;;;4918225;29;20547;-79
2022/01/10 06:23:20;;;;;;;62.30;31.98;;;7.50;54.90;;;;;;4900837;29;20028;-89
2022/01/10 06:25:46;;;;;;;64.63;32.35;;;7.40;54.70;;;;;;4917840;29;20038;-79
2022/01/10 06:28:12;;;;;;;65.57;32.85;;;7.30;55.10;;;;;;4917261;29;20028;-77
2022/01/10 06:30:37;;;;;;;64.85;34.08;;;7.20;55.20;;;;;;4900563;29;20083;-80
2022/01/10 06:33:03;;;;;;;67.45;34.20;;;6.80;55.80;;;;;;4900324;29;20029;-80
2022/01/10 06:35:29;;;;;;;68.38;33.10;;;6.90;55.90;;;;;;4917105;29;20020;-79
2022/01/10 06:37:54;;;;;;;65.75;32.75;;;6.80;56.10;;;;;;4899751;29;20544;-79
2022/01/10 06:40:25;;;;;;;65.60;33.45;;;6.70;56.40;;;;;;4914547;29;20025;-78
2022/01/10 06:42:51;;;;;;;65.40;33.42;;;6.80;56.40;;;;;;4898357;29;20410;-79
2022/01/10 06:45:16;;;;;;;70.00;34.50;;;6.90;56.10;;;;;;4882419;29;20488;-78
2022/01/10 06:47:42;;;;;;;64.40;33.38;;;7.00;55.80;;;;;;4897695;29;20503;-76
2022/01/10 06:50:08;;;;;;;68.35;35.08;;;7.20;55.70;;;;;;4879860;29;20024;-77
2022/01/10 06:52:35;;;;;;;65.40;33.85;;;7.30;55.10;;;;;;4899537;29;20062;-78
2022/01/10 06:55:00;;;;;;;76.32;38.60;;;7.80;54.80;;;;;;4882703;29;20123;-77
2022/01/10 06:57:26;;;;;;;82.13;41.83;;;8.30;53.70;;;;;;4900752;29;20079;-78
2022/01/10 06:59:52;;;;;;;80.25;39.00;;;8.40;53.30;;;;;;4883909;29;20025;-79
2022/01/10 07:02:18;;;;;;;72.65;37.95;;;8.60;53.00;;;;;;4883197;29;20055;-80
2022/01/10 07:04:44;;;;;;;69.22;35.25;;;8.90;52.50;;;;;;4899159;29;20032;-79
2022/01/10 07:07:10;;;;;;;72.18;37.05;;;9.20;52.10;;;;;;4882553;29;20043;-79
2022/01/10 07:09:36;;;;;;;73.57;36.83;;;9.40;51.70;;;;;;4899222;29;20039;-80
2022/01/10 07:12:03;;;;;;;72.28;35.08;;;9.40;51.60;;;;;;4882038;29;20056;-77
2022/01/10 07:14:31;;;;;;;70.32;36.25;;;9.50;51.40;;;;;;4899590;29;20028;-78
2022/01/10 07:16:57;;;;;;;66.70;34.05;;;9.70;51.00;;;;;;4882836;29;20088;-78
2022/01/10 07:19:23;;;;;;;68.85;35.45;;;9.40;51.00;;;;;;4899993;29;20017;-79
2022/01/10 07:21:50;;;;;;;71.03;36.38;;;9.00;52.10;;;;;;4883368;29;20090;-80
2022/01/10 07:24:16;;;;;;;66.15;34.70;;;8.80;52.30;;;;;;4899971;29;20039;-79
2022/01/10 07:26:42;;;;;;;63.88;33.42;;;8.40;53.10;;;;;;4899640;29;20044;-79
2022/01/10 07:29:11;;;;;;;67.45;35.03;;;8.10;54.00;;;;;;4901040;29;20397;-79
2022/01/10 07:31:38;;;;;;;64.82;33.95;;;7.70;54.00;;;;;;4885063;29;20062;-80
2022/01/10 07:34:04;;;;;;;68.43;34.58;;;7.50;54.60;;;;;;4900228;29;20032;-80
2022/01/10 07:36:30;;;;;;;72.68;35.65;;;7.60;54.80;;;;;;4901434;29;20556;-80
2022/01/10 07:38:56;;;;;;;69.25;34.20;;;7.90;54.20;;;;;;4884562;29;20111;-79
2022/01/10 07:41:22;;;;;;;71.35;35.50;;;8.00;54.00;;;;;;4884588;29;20028;-79
2022/01/10 07:43:48;;;;;;;70.63;35.33;;;8.20;53.90;;;;;;4884470;29;20044;-79
2022/01/10 07:46:15;;;;;;;71.25;36.72;;;8.30;53.50;;;;;;4884675;29;20048;-79
2022/01/10 07:48:44;;;;;;;69.30;35.35;;;8.20;54.10;;;;;;4884432;29;20119;-80
2022/01/10 07:51:12;;;;;;;70.45;35.75;;;8.00;53.70;;;;;;4900930;29;20029;-80
2022/01/10 07:53:39;;;;;;;73.03;36.58;;;7.70;54.30;;;;;;4900922;29;20029;-79
2022/01/10 07:56:09;;;;;;;65.25;32.70;;;7.60;55.20;;;;;;4884589;29;20476;-79
2022/01/10 07:58:35;;;;;;;65.35;30.70;;;7.80;53.80;;;;;;4884587;29;20060;-80
2022/01/10 08:01:01;;;;;;;65.00;31.83;;;7.80;53.30;;;;;;4884601;29;20039;-80
2022/01/10 08:03:50;;;;;;;55.22;30.05;;;7.40;52.50;;;;;;5084838;27;1414757;-81
2022/01/10 08:06:16;;;;;;;59.33;29.42;;;6.60;54.40;;;;;;5094251;28;20032;-79
2022/01/10 08:08:42;;;;;;;67.07;32.72;;;6.70;55.30;;;;;;5112301;28;20027;-79
2022/01/10 08:11:08;;;;;;;62.60;31.40;;;7.00;54.30;;;;;;5094112;28;20024;-80
2022/01/10 08:13:34;;;;;;;64.05;32.15;;;7.30;54.10;;;;;;5112286;28;20027;-79
2022/01/10 08:16:00;;;;;;;56.13;29.88;;;7.40;53.80;;;;;;5111913;28;20028;-80
2022/01/10 08:18:26;;;;;;;59.83;30.58;;;7.10;53.90;;;;;;5093651;28;20123;-79
2022/01/10 08:20:52;;;;;;;57.42;29.60;;;6.70;54.60;;;;;;5093731;28;20107;-79
2022/01/10 08:23:18;;;;;;;64.15;30.38;;;6.50;55.40;;;;;;5093858;28;20051;-82
2022/01/10 08:25:43;;;;;;;60.55;31.17;;;6.60;55.10;;;;;;5112250;28;20378;-78
2022/01/10 08:28:09;;;;;;;56.63;29.90;;;7.00;54.50;;;;;;5093628;28;20077;-78
2022/01/10 08:30:35;;;;;;;53.53;29.05;;;7.00;54.40;;;;;;5093740;28;20563;-79
2022/01/10 08:33:01;;;;;;;58.53;30.00;;;6.80;54.20;;;;;;5093548;28;20020;-80
2022/01/10 08:35:27;;;;;;;60.03;28.70;;;6.80;54.50;;;;;;5112016;28;20024;-78
2022/01/10 08:37:53;;;;;;;54.92;28.52;;;6.80;54.30;;;;;;5093575;28;20105;-79
2022/01/10 08:40:19;;;;;;;54.25;28.23;;;6.80;54.30;;;;;;5094009;28;20070;-81
2022/01/10 08:42:44;;;;;;;60.05;29.63;;;6.50;55.10;;;;;;5093484;28;20028;-81
2022/01/10 08:45:10;;;;;;;55.55;29.45;;;6.70;54.90;;;;;;5093392;28;20020;-81
2022/01/10 08:47:37;;;;;;;53.92;29.63;;;7.00;54.90;;;;;;5093535;28;20032;-79
2022/01/10 08:50:07;;;;;;;53.22;28.50;;;7.60;53.20;;;;;;5093708;28;20024;-79
2022/01/10 08:52:32;;;;;;;50.83;28.00;;;7.70;52.50;;;;;;5110989;28;20352;-79
2022/01/10 08:54:58;;;;;;;53.72;27.80;;;9.40;51.60;;;;;;5093326;28;20489;-80
2022/01/10 08:57:25;;;;;;;49.58;26.70;;;11.70;47.40;;;;;;5093183;28;20389;-80
2022/01/10 08:59:52;;;;;;;45.13;26.17;;;13.90;44.30;;;;;;5093333;28;20028;-81
2022/01/10 09:02:18;;;;;;;48.28;26.70;;;16.00;42.00;;;;;;5092995;28;20121;-80
2022/01/10 09:04:44;;;;;;;53.13;29.75;;;17.40;40.40;;;;;;5093158;28;20471;-81
2022/01/10 09:07:11;;;;;;;53.45;28.65;;;18.40;39.00;;;;;;5093050;28;20110;-80
2022/01/10 09:09:37;;;;;;;60.47;34.40;;;19.90;37.90;;;;;;5093240;28;20055;-80
2022/01/10 09:12:03;;;;;;;56.10;29.02;;;20.30;36.90;;;;;;5093137;28;20055;-81
2022/01/10 09:14:29;;;;;;;49.47;28.27;;;20.90;36.30;;;;;;5083282;28;20036;-81
2022/01/10 09:18:55;;;;;;;51.50;28.08;;;19.80;36.20;;;;;;5084654;27;1477040;-79
2022/01/10 09:21:20;;;;;;;40.88;24.23;;;20.70;36.10;;;;;;5093886;28;20031;-79
2022/01/10 09:23:46;;;;;;;69.03;41.13;;;20.10;36.10;;;;;;5094320;28;20127;-80
2022/01/10 09:26:12;;;;;;;43.20;25.63;;;20.60;36.40;;;;;;5093654;28;20471;-79
2022/01/10 09:28:38;;;;;;;42.97;25.70;;;20.00;35.90;;;;;;5094221;28;20051;-79
2022/01/10 09:31:04;;;;;;;48.47;28.30;;;20.40;36.10;;;;;;5093359;28;20097;-80
2022/01/10 09:33:31;;;;;;;42.40;25.27;;;20.80;35.70;;;;;;5111939;28;20459;-81
2022/01/10 09:35:57;;;;;;;42.95;26.08;;;20.50;36.00;;;;;;5111479;28;20027;-80
2022/01/10 09:38:22;;;;;;;43.58;26.90;;;21.00;35.60;;;;;;5112070;28;20134;-79
2022/01/10 09:40:48;;;;;;;46.40;28.75;;;21.90;35.30;;;;;;5111869;28;20091;-80
2022/01/10 09:43:15;;;;;;;37.17;21.88;;;22.30;34.50;;;;;;5093942;28;20020;-79
2022/01/10 09:45:42;;;;;;;45.47;28.13;;;20.50;34.90;;;;;;5111636;28;20069;-79
2022/01/10 09:48:08;;;;;;;48.67;30.30;;;19.80;36.10;;;;;;5093781;28;20032;-79
2022/01/10 09:50:34;;;;;;;42.78;27.02;;;20.30;36.60;;;;;;5111043;28;20024;-79
2022/01/10 09:52:59;;;;;;;44.65;27.80;;;21.10;35.60;;;;;;5093430;28;20028;-79
2022/01/10 09:55:30;;;;;;;38.33;24.80;;;22.10;35.10;;;;;;5093517;28;20092;-78
2022/01/10 09:57:57;;;;;;;42.17;24.92;;;20.90;34.90;;;;;;5093044;28;20133;-80
2022/01/10 10:00:22;;;;;;;44.00;25.95;;;20.00;36.10;;;;;;5093040;28;20024;-80
2022/01/10 10:02:49;;;;;;;43.75;27.75;;;19.60;36.40;;;;;;5111646;28;20027;-79
2022/01/10 10:06:52;;;;;;;41.25;25.50;;;21.00;35.20;;;;;;5092249;27;20547;-87
2022/01/10 10:09:18;;;;;;;45.20;30.27;;;21.60;34.70;;;;;;5091016;28;20024;-80
2022/01/10 10:11:47;;;;;;;44.33;27.45;;;21.60;34.90;;;;;;5092425;28;20024;-81
2022/01/10 10:14:17;;;;;;;44.17;26.67;;;21.80;34.80;;;;;;5092838;28;20024;-81
2022/01/10 10:16:51;;;;;;;45.42;27.15;;;22.30;34.80;;;;;;5091747;28;20020;-81
2022/01/10 10:19:20;;;;;;;44.90;27.58;;;22.10;34.30;;;;;;5092199;28;20032;-81
2022/01/10 10:21:45;;;;;;;39.95;25.48;;;22.40;34.90;;;;;;5090351;28;20438;-81
2022/01/10 10:24:12;;;;;;;43.33;26.90;;;22.90;34.50;;;;;;5091137;28;20482;-80
2022/01/10 10:26:37;;;;;;;39.08;24.80;;;23.40;34.60;;;;;;5090847;28;20086;-81
2022/01/10 10:29:03;;;;;;;38.13;23.77;;;23.80;33.70;;;;;;5051559;28;20056;-80
2022/01/10 10:31:31;;;;;;;45.58;29.60;;;24.00;33.20;;;;;;5091200;28;20048;-81
2022/01/10 10:34:12;;;;;;;35.90;23.30;;;24.50;32.70;;;;;;5092650;27;20737;-81
2022/01/10 10:36:39;;;;;;;37.95;24.55;;;24.90;32.80;;;;;;5091088;28;20433;-82
2022/01/10 10:39:10;;;;;;;34.53;20.95;;;25.10;33.10;;;;;;5091609;28;20502;-81
2022/01/10 10:41:37;;;;;;;31.85;21.13;;;25.00;32.30;;;;;;5091458;28;20428;-81
2022/01/10 10:44:04;;;;;;;32.33;20.98;;;24.50;33.30;;;;;;5091169;28;20035;-81
2022/01/10 10:46:30;;;;;;;32.08;19.70;;;24.50;32.60;;;;;;5092181;28;20103;-81
2022/01/10 10:49:05;;;;;;;26.65;17.55;;;23.10;32.90;;;;;;5091656;28;20052;-87
2022/01/10 10:51:33;;;;;;;29.75;19.52;;;22.10;33.30;;;;;;5091251;28;20028;-81
2022/01/10 10:54:04;;;;;;;30.42;18.67;;;20.70;34.60;;;;;;5091264;28;20396;-81
2022/01/10 10:56:39;;;;;;;29.15;18.40;;;20.90;35.30;;;;;;5091227;28;20088;-81
2022/01/10 10:59:07;;;;;;;28.25;17.75;;;21.70;34.00;;;;;;5092004;28;20374;-81
2022/01/10 11:01:37;;;;;;;24.90;17.08;;;21.80;33.90;;;;;;5093376;28;20028;-82
2022/01/10 11:04:04;;;;;;;24.70;16.45;;;21.90;33.20;;;;;;5090986;28;20118;-81
2022/01/10 11:06:34;;;;;;;27.77;17.75;;;21.70;34.10;;;;;;5091804;28;20529;-81
2022/01/10 11:09:06;;;;;;;24.98;16.05;;;21.60;33.70;;;;;;5070311;28;20037;-81
2022/01/10 11:11:32;;;;;;;21.85;14.35;;;21.00;34.10;;;;;;5072086;28;20029;-81
2022/01/10 11:14:00;;;;;;;24.83;14.48;;;20.80;34.30;;;;;;5070940;28;20484;-81
2022/01/10 11:16:27;;;;;;;23.95;14.75;;;20.80;34.60;;;;;;5071687;28;20013;-81
2022/01/10 11:18:54;;;;;;;14.73;9.43;;;20.90;33.90;;;;;;5070387;28;20239;-82
2022/01/10 11:21:23;;;;;;;13.65;7.72;;;19.70;33.50;;;;;;5070184;28;20027;-80
2022/01/10 11:23:50;;;;;;;13.05;7.90;;;18.30;34.20;;;;;;5070210;28;20123;-80
2022/01/10 11:26:17;;;;;;;16.42;7.72;;;16.90;36.10;;;;;;5069848;28;20021;-80
2022/01/10 11:28:55;;;;;;;11.77;7.40;;;15.80;36.20;;;;;;5071183;28;20375;-80
2022/01/10 11:31:27;;;;;;;13.43;8.18;;;14.20;37.80;;;;;;5071057;28;20032;-79
2022/01/10 11:33:55;;;;;;;13.48;7.28;;;13.10;38.60;;;;;;5069476;28;20045;-79
2022/01/10 11:36:24;;;;;;;11.35;6.70;;;11.80;40.20;;;;;;5070661;28;20039;-80
2022/01/10 11:38:59;;;;;;;10.20;6.47;;;11.30;41.10;;;;;;5069501;28;20028;-79
2022/01/10 11:41:30;;;;;;;10.82;6.40;;;10.60;42.50;;;;;;5070537;28;20028;-80
2022/01/10 11:44:12;;;;;;;12.38;7.30;;;10.10;43.20;;;;;;5065344;28;20032;-81
2022/01/10 11:46:51;;;;;;;14.70;8.38;;;10.20;44.00;;;;;;5057195;28;20112;-79
2022/01/10 11:49:20;;;;;;;28.70;15.75;;;10.90;42.50;;;;;;5055936;28;20506;-79
2022/01/10 11:51:56;;;;;;;17.02;9.77;;;11.50;41.60;;;;;;5055551;28;20432;-80
2022/01/10 11:54:26;;;;;;;19.23;9.90;;;12.00;41.00;;;;;;5055988;28;20127;-92
2022/01/10 11:57:05;;;;;;;14.80;8.35;;;12.30;40.90;;;;;;5055149;28;20484;-80
2022/01/10 11:59:38;;;;;;;19.33;11.90;;;12.30;40.40;;;;;;5056070;28;20025;-80
2022/01/10 12:02:12;;;;;;;12.18;7.25;;;12.60;40.20;;;;;;5055308;28;20017;-79
2022/01/10 12:04:39;;;;;;;12.25;7.45;;;11.60;40.20;;;;;;5055982;28;20021;-80
2022/01/10 12:07:07;;;;;;;11.23;6.80;;;11.60;40.90;;;;;;5055578;28;20032;-84
2022/01/10 12:09:33;;;;;;;10.95;6.88;;;11.90;40.30;;;;;;5056981;28;20029;-79
2022/01/10 12:12:01;;;;;;;13.15;7.55;;;12.50;40.40;;;;;;5054956;28;20056;-81
2022/01/10 12:14:27;;;;;;;11.65;6.43;;;12.50;39.90;;;;;;5055489;28;20025;-79
2022/01/10 12:16:54;;;;;;;9.50;5.88;;;11.80;39.60;;;;;;5055205;28;20079;-79
2022/01/10 12:19:20;;;;;;;9.98;5.95;;;10.90;41.00;;;;;;5055389;28;20119;-81
2022/01/10 12:21:46;;;;;;;11.43;6.60;;;11.30;41.60;;;;;;5055417;28;20068;-80
2022/01/10 12:24:13;;;;;;;10.18;6.43;;;11.60;40.40;;;;;;5056312;28;20025;-80
2022/01/10 12:26:41;;;;;;;11.07;6.68;;;11.60;41.30;;;;;;5055594;28;20369;-80
2022/01/10 12:29:08;;;;;;;12.60;6.20;;;12.10;41.10;;;;;;5056310;28;20024;-80
2022/01/10 12:31:36;;;;;;;11.80;7.35;;;12.60;40.20;;;;;;5055047;28;20067;-79
2022/01/10 12:34:03;;;;;;;10.38;6.18;;;13.20;40.50;;;;;;5055946;28;20071;-80
2022/01/10 12:36:32;;;;;;;11.25;7.05;;;13.40;41.00;;;;;;5056511;28;20021;-81
2022/01/10 12:39:05;;;;;;;23.52;11.73;;;13.20;40.30;;;;;;5075896;28;20476;-80
2022/01/10 12:41:32;;;;;;;15.43;7.97;;;13.40;41.00;;;;;;5058253;28;20024;-81
2022/01/10 12:43:59;;;;;;;16.92;10.13;;;13.50;40.10;;;;;;5091564;28;20020;-80
2022/01/10 12:46:27;;;;;;;14.48;9.68;;;13.60;40.40;;;;;;5075890;28;20179;-80
2022/01/10 12:48:54;;;;;;;10.70;6.05;;;13.60;40.30;;;;;;5075945;28;20025;-80
2022/01/10 12:51:22;;;;;;;10.65;6.28;;;13.20;39.30;;;;;;5057674;28;20055;-81